Isleham, United Kingdom
Current Conditions -  °F | °C
As of 5:58 PM on Friday 21 Nov 2014 (Local Time) from EGUN Reporting Station
Overcast Overcast  
Wind Chill: 43°   Ceiling: 4800
Heat Index: 48°   Visibility: 6mi
Dew Point: 45°   Wind: 14mph
Humidity: 87%   Direction: 120°ESE
Pressure: 29.98"   Gusts: NA
Location:  52.34°N, 0.41°E
Report Text: EGUN 211758Z AUTO 12012KT 9999 BKN048 OVC060 09/07 A2998 RMK AO2 SLP156 57013
Loading
Personal Weather Stations






























Interactive Weather Map New forecast layout! Learn more

10-Day Weather Forecast

Advertisements
Track Severe Weather on mobile